^^
Meteo Knjazevac Station Historical Data
Daily Summary for February 3, 2021 Units:  English    Metric   Both
Daily Weekly Monthly Yearly Custom
  High: Low: Average:
Temperature: 35.2 °F 31.5 °F 33.5 °F
Dew Point: 35 °F 31.2 °F 33.2 °F
Humidity: 99% 99% 99%
Wind Speed: 2mph 0mph 0.7mph
Wind Gust: 6mph - -
Wind- - West
Pressure: 30.16 in 30.12 in -
Precipitation: 0.12 in    
Historical Graphs
 
 
Tabular Data for February 3, 2021
Time Temperature Dew Point Pressure Wind Wind Speed Wind Gust Humidity Rainfall Rate (Hourly) solar Conditions
00:00 31.5 °F 31.2 °F 30.16 in West 1 mph 2 mph 99% 0.00 in 0 W/m2
00:10 31.6 °F 31.4 °F 30.16 in West 1 mph 3 mph 99% 0.00 in 0 W/m2
00:20 31.6 °F 31.4 °F 30.16 in WSW 2 mph 5 mph 99% 0.00 in 0 W/m2
00:30 31.8 °F 31.6 °F 30.15 in WNW 2 mph 6 mph 99% 0.00 in 0 W/m2
00:40 32 °F 31.8 °F 30.15 in West 2 mph 5 mph 99% 0.00 in 0 W/m2
00:50 32.2 °F 31.9 °F 30.16 in WSW 2 mph 5 mph 99% 0.00 in 0 W/m2
01:00 32.2 °F 31.9 °F 30.15 in West 2 mph 4 mph 99% 0.00 in 0 W/m2
01:10 32.3 °F 32 °F 30.15 in West 1 mph 3 mph 99% 0.00 in 0 W/m2
01:20 32.4 °F 32.1 °F 30.15 in West 1 mph 2 mph 99% 0.00 in 0 W/m2
01:30 32.5 °F 32.3 °F 30.15 in Calm   3 mph 99% 0.00 in 0 W/m2
01:40 32.7 °F 32.5 °F 30.15 in NW 1 mph 3 mph 99% 0.00 in 0 W/m2
01:50 32.9 °F 32.7 °F 30.15 in Calm   3 mph 99% 0.00 in 0 W/m2
02:00 32.9 °F 32.7 °F 30.15 in Calm   2 mph 99% 0.00 in 0 W/m2
02:10 33.1 °F 32.8 °F 30.15 in Calm   2 mph 99% 0.00 in 0 W/m2
02:20 33.1 °F 32.8 °F 30.15 in Calm   3 mph 99% 0.00 in 0 W/m2
02:30 33.3 °F 33 °F 30.15 in Calm   4 mph 99% 0.00 in 0 W/m2
02:40 33.4 °F 33.2 °F 30.15 in Calm   2 mph 99% 0.00 in 0 W/m2
02:50 33.4 °F 33.2 °F 30.15 in Calm   2 mph 99% 0.00 in 0 W/m2
03:00 33.4 °F 33.2 °F 30.15 in West 1 mph 3 mph 99% 0.00 in 0 W/m2
03:10 33.4 °F 33.2 °F 30.15 in West 1 mph 2 mph 99% 0.00 in 0 W/m2
03:20 33.4 °F 33.2 °F 30.15 in WSW 1 mph 2 mph 99% 0.00 in 0 W/m2
03:30 33.4 °F 33.2 °F 30.15 in WSW 2 mph 2 mph 99% 0.00 in 0 W/m2
03:40 33.5 °F 33.3 °F 30.15 in West 1 mph 3 mph 99% 0.00 in 0 W/m2
03:50 33.6 °F 33.4 °F 30.14 in West 1 mph 4 mph 99% 0.00 in 0 W/m2
04:00 33.8 °F 33.5 °F 30.14 in Calm   2 mph 99% 0.00 in 0 W/m2
04:10 33.8 °F 33.5 °F 30.14 in Calm   1 mph 99% 0.00 in 0 W/m2
04:20 34 °F 33.7 °F 30.14 in Calm   2 mph 99% 0.00 in 0 W/m2
04:30 34 °F 33.7 °F 30.14 in Calm   2 mph 99% 0.00 in 0 W/m2
04:40 34.2 °F 33.9 °F 30.14 in Calm   2 mph 99% 0.00 in 0 W/m2
04:50 34.2 °F 34 °F 30.14 in NW 1 mph 2 mph 99% 0.00 in 0 W/m2
05:00 34.3 °F 34.1 °F 30.13 in Calm   2 mph 99% 0.00 in 0 W/m2
05:10 34.5 °F 34.3 °F 30.13 in Calm   2 mph 99% 0.00 in 0 W/m2
05:20 34.5 °F 34.3 °F 30.13 in Calm   2 mph 99% 0.00 in 0 W/m2
05:30 34.7 °F 34.4 °F 30.13 in Calm   2 mph 99% 0.12 in 0 W/m2
05:40 34.9 °F 34.6 °F 30.12 in Calm   2 mph 99% 0.00 in 0 W/m2
05:50 34.7 °F 34.4 °F 30.13 in WSW 2 mph 3 mph 99% 0.00 in 0 W/m2
06:00 34.5 °F 34.3 °F 30.13 in West 2 mph 5 mph 99% 0.00 in 0 W/m2
06:10 34.7 °F 34.4 °F 30.13 in West 1 mph 4 mph 99% 0.00 in 0 W/m2
06:20 34.9 °F 34.6 °F 30.13 in West 1 mph 3 mph 99% 0.00 in 0 W/m2
06:30 34.9 °F 34.6 °F 30.13 in Calm   2 mph 99% 0.00 in 0 W/m2
06:40 35.1 °F 34.8 °F 30.13 in North 1 mph 3 mph 99% 0.00 in 0 W/m2
06:50 35.2 °F 35 °F 30.14 in Calm   6 mph 99% 0.00 in 0 W/m2
Knjazevac, Serbia
Compliments of Weather Underground - 2 mb